createdAt,value
2023-03-14T00:00:02.172Z,93.01
2023-03-14T00:01:02.141Z,93.22
2023-03-14T00:02:02.087Z,92.81
2023-03-14T00:03:02.155Z,92.91
2023-03-14T00:04:02.094Z,92.81
2023-03-14T00:05:02.059Z,93.12
2023-03-14T00:06:02.060Z,92.40
2023-03-14T00:07:02.040Z,92.71
2023-03-14T00:08:02.974Z,92.10
2023-03-14T00:09:02.063Z,92.05
2023-03-14T00:10:02.024Z,91.89
2023-03-14T00:11:03.081Z,92.05
2023-03-14T00:12:02.005Z,91.44
2023-03-14T00:13:02.997Z,91.13
2023-03-14T00:14:02.023Z,90.37
2023-03-14T00:15:02.154Z,90.58
2023-03-14T00:16:02.010Z,90.23
2023-03-14T00:17:01.972Z,90.58
2023-03-14T00:18:02.192Z,90.68
2023-03-14T00:19:01.992Z,90.68
2023-03-14T00:20:01.957Z,90.33
2023-03-14T00:21:01.937Z,90.47
2023-03-14T00:22:01.971Z,90.27
2023-03-14T00:23:01.933Z,90.64
2023-03-14T00:24:01.922Z,90.43
2023-03-14T00:25:01.926Z,90.06
2023-03-14T00:26:01.905Z,90.37
2023-03-14T00:27:01.945Z,90.78
2023-03-14T00:28:01.959Z,90.68
2023-03-14T00:29:02.682Z,90.27
2023-03-14T00:30:01.849Z,90.02
2023-03-14T00:31:01.900Z,90.17
2023-03-14T00:32:01.872Z,90.27
2023-03-14T00:33:01.845Z,90.12
2023-03-14T00:34:01.842Z,89.86
2023-03-14T00:35:01.863Z,89.97
2023-03-14T00:36:01.903Z,89.72
2023-03-14T00:37:01.863Z,89.92
2023-03-14T00:38:01.806Z,89.76
2023-03-14T00:39:01.808Z,89.11
2023-03-14T00:40:01.951Z,89.72
2023-03-14T00:41:01.769Z,89.51
2023-03-14T00:42:01.803Z,89.72
2023-03-14T00:43:01.773Z,89.97
2023-03-14T00:44:01.774Z,89.65
2023-03-14T00:45:01.960Z,90.23
2023-03-14T00:46:01.763Z,90.17
2023-03-14T00:47:02.074Z,90.17
2023-03-14T00:48:01.732Z,90.06
2023-03-14T00:49:01.720Z,90.06
2023-03-14T00:50:01.718Z,90.58
2023-03-14T00:51:02.456Z,90.58
2023-03-14T00:52:01.720Z,90.47
2023-03-14T00:53:01.718Z,90.78
2023-03-14T00:54:01.736Z,90.68
2023-03-14T00:55:01.694Z,90.78
2023-03-14T00:56:01.699Z,90.27
2023-03-14T00:57:01.653Z,90.27
2023-03-14T00:58:01.689Z,90.47
2023-03-14T00:59:01.827Z,90.37
2023-03-14T01:00:01.757Z,90.68
2023-03-14T01:01:02.399Z,90.17
2023-03-14T01:02:01.782Z,89.65
2023-03-14T01:03:01.654Z,89.76
2023-03-14T01:04:02.611Z,89.56
2023-03-14T01:05:01.615Z,89.45
2023-03-14T01:06:01.600Z,89.86
2023-03-14T01:07:01.608Z,89.15
2023-03-14T01:08:01.609Z,89.35
2023-03-14T01:09:01.599Z,88.53
2023-03-14T01:10:01.621Z,88.84
2023-03-14T01:11:01.586Z,88.74
2023-03-14T01:12:01.650Z,88.84
2023-03-14T01:13:01.549Z,89.45
2023-03-14T01:14:02.551Z,89.86
2023-03-14T01:15:01.539Z,89.65
2023-03-14T01:16:01.670Z,89.86
2023-03-14T01:17:01.574Z,89.25
2023-03-14T01:18:01.542Z,89.45
2023-03-14T01:19:01.517Z,88.84
2023-03-14T01:20:02.377Z,89.04
2023-03-14T01:21:01.528Z,88.94
2023-03-14T01:22:01.507Z,88.74
2023-03-14T01:23:02.408Z,89.86
2023-03-14T01:24:01.493Z,89.76
2023-03-14T01:25:01.628Z,89.86
2023-03-14T01:26:01.429Z,89.76
2023-03-14T01:27:01.719Z,89.56
2023-03-14T01:28:01.573Z,90.17
2023-03-14T01:29:01.553Z,89.65
2023-03-14T01:30:01.432Z,90.37
2023-03-14T01:31:01.455Z,89.76
2023-03-14T01:32:02.432Z,90.27
2023-03-14T01:33:01.395Z,90.02
2023-03-14T01:34:01.399Z,90.27
2023-03-14T01:35:01.404Z,90.17
2023-03-14T01:36:01.472Z,90.27
2023-03-14T01:37:01.395Z,89.86
2023-03-14T01:38:01.392Z,90.06
2023-03-14T01:39:01.377Z,90.23
2023-03-14T01:40:01.329Z,89.76
2023-03-14T01:41:01.348Z,89.82
2023-03-14T01:42:01.363Z,89.76
2023-03-14T01:43:01.332Z,90.12
2023-03-14T01:44:01.339Z,89.76
2023-03-14T01:45:01.306Z,90.02
2023-03-14T01:46:01.357Z,90.47
2023-03-14T01:47:01.281Z,90.27
2023-03-14T01:48:01.296Z,90.47
2023-03-14T01:49:01.298Z,90.17
2023-03-14T01:50:01.266Z,90.47
2023-03-14T01:51:01.242Z,90.88
2023-03-14T01:52:01.250Z,90.78
2023-03-14T01:53:01.232Z,91.64
2023-03-14T01:54:01.257Z,91.03
2023-03-14T01:55:01.237Z,91.33
2023-03-14T01:56:01.230Z,91.33
2023-03-14T01:57:01.187Z,90.21
2023-03-14T01:58:02.262Z,90.41
2023-03-14T01:59:01.196Z,90.92
2023-03-14T02:00:01.206Z,90.52
2023-03-14T02:01:01.291Z,90.82
2023-03-14T02:02:01.186Z,91.03
2023-03-14T02:03:01.192Z,90.72
2023-03-14T02:04:01.173Z,91.64
2023-03-14T02:05:01.194Z,91.23
2023-03-14T02:06:01.160Z,91.13
2023-03-14T02:07:01.175Z,91.74
2023-03-14T02:08:01.128Z,91.23
2023-03-14T02:09:01.122Z,90.58
2023-03-14T02:10:01.178Z,90.58
2023-03-14T02:11:01.109Z,90.47
2023-03-14T02:12:01.148Z,90.41
2023-03-14T02:13:01.120Z,90.37
2023-03-14T02:14:01.100Z,90.37
2023-03-14T02:15:01.099Z,90.88
2023-03-14T02:16:01.129Z,90.88
2023-03-14T02:17:01.087Z,90.27
2023-03-14T02:18:01.045Z,90.17
2023-03-14T02:19:01.045Z,90.37
2023-03-14T02:20:01.043Z,90.27
2023-03-14T02:21:01.034Z,90.41
2023-03-14T02:22:01.048Z,90.47
2023-03-14T02:23:01.014Z,90.47
2023-03-14T02:24:00.995Z,90.58
2023-03-14T02:25:00.985Z,90.82
2023-03-14T02:26:01.513Z,90.78
2023-03-14T02:27:01.994Z,89.97
2023-03-14T02:28:00.968Z,90.27
2023-03-14T02:29:00.949Z,90.78
2023-03-14T02:30:00.987Z,91.03
2023-03-14T02:31:00.928Z,90.82
2023-03-14T02:32:01.002Z,90.72
2023-03-14T02:33:00.964Z,90.62
2023-03-14T02:34:00.908Z,90.21
2023-03-14T02:35:00.958Z,90.68
2023-03-14T02:36:00.945Z,90.31
2023-03-14T02:37:00.910Z,90.31
2023-03-14T02:38:00.888Z,90.52
2023-03-14T02:39:00.882Z,90.72
2023-03-14T02:40:00.873Z,90.00
2023-03-14T02:41:00.893Z,89.97
2023-03-14T02:42:00.841Z,89.90
2023-03-14T02:43:00.915Z,90.52
2023-03-14T02:44:00.888Z,90.52
2023-03-14T02:45:00.839Z,90.72
2023-03-14T02:46:00.881Z,90.72
2023-03-14T02:47:00.809Z,90.11
2023-03-14T02:48:00.812Z,90.31
2023-03-14T02:49:00.836Z,89.90
2023-03-14T02:50:00.812Z,89.90
2023-03-14T02:51:00.778Z,89.90
2023-03-14T02:52:00.761Z,90.21
2023-03-14T02:53:00.770Z,90.00
2023-03-14T02:54:00.783Z,90.31
2023-03-14T02:55:00.745Z,90.11
2023-03-14T02:56:00.753Z,90.27
2023-03-14T02:57:00.739Z,90.31
2023-03-14T02:58:00.742Z,90.21
2023-03-14T02:59:00.715Z,89.90
2023-03-14T03:00:00.716Z,89.45
2023-03-14T03:01:00.766Z,89.35
2023-03-14T03:02:00.706Z,89.86
2023-03-14T03:03:00.736Z,89.76
2023-03-14T03:04:01.524Z,89.45
2023-03-14T03:05:00.701Z,90.27
2023-03-14T03:06:00.669Z,90.00
2023-03-14T03:07:00.687Z,89.86
2023-03-14T03:08:00.635Z,89.25
2023-03-14T03:09:00.646Z,89.76
2023-03-14T03:10:00.607Z,89.56
2023-03-14T03:11:00.624Z,89.65
2023-03-14T03:12:00.622Z,89.45
2023-03-14T03:13:00.649Z,89.86
2023-03-14T03:14:00.586Z,89.86
2023-03-14T03:15:00.656Z,89.76
2023-03-14T03:16:00.620Z,89.86
2023-03-14T03:17:00.657Z,90.31
2023-03-14T03:18:00.577Z,90.31
2023-03-14T03:19:00.593Z,89.70
2023-03-14T03:20:00.572Z,89.65
2023-03-14T03:21:00.545Z,89.76
2023-03-14T03:22:00.552Z,89.80
2023-03-14T03:23:00.555Z,89.76
2023-03-14T03:24:00.522Z,89.70
2023-03-14T03:25:00.517Z,89.29
2023-03-14T03:26:00.526Z,90.11
2023-03-14T03:27:00.561Z,90.41
2023-03-14T03:28:00.499Z,90.00
2023-03-14T03:29:00.536Z,90.41
2023-03-14T03:30:00.500Z,90.25
2023-03-14T03:31:00.527Z,90.36
2023-03-14T03:32:00.487Z,90.25
2023-03-14T03:33:01.146Z,90.25
2023-03-14T03:34:00.503Z,90.45
2023-03-14T03:35:00.451Z,90.15
2023-03-14T03:36:32.395Z,90.25
2023-03-14T03:37:00.425Z,90.45
2023-03-14T03:38:00.468Z,89.94
2023-03-14T03:39:32.373Z,90.36
2023-03-14T03:40:00.418Z,90.45
2023-03-14T03:41:33.065Z,90.15
2023-03-14T03:42:01.509Z,90.77
2023-03-14T03:43:01.398Z,90.36
2023-03-14T03:44:00.405Z,90.66
2023-03-14T03:45:34.066Z,90.56
2023-03-14T03:46:00.459Z,90.45
2023-03-14T04:02:32.286Z,92.03
2023-03-14T04:03:32.315Z,92.34
2023-03-14T04:04:32.227Z,92.44
2023-03-14T04:05:33.380Z,92.30
2023-03-14T04:06:33.416Z,92.34
2023-03-14T04:07:33.379Z,92.34
2023-03-14T04:08:33.388Z,92.65
2023-03-14T04:09:33.333Z,92.03
2023-03-14T04:10:33.444Z,92.75
2023-03-14T04:11:33.349Z,92.69
2023-03-14T04:12:33.325Z,93.10
2023-03-14T04:13:33.911Z,93.00
2023-03-14T04:14:33.294Z,92.96
2023-03-14T04:15:33.320Z,92.90
2023-03-14T04:16:33.301Z,93.20
2023-03-14T04:17:33.351Z,93.00
2023-03-14T04:18:33.423Z,93.00
2023-03-14T04:19:33.303Z,93.00
2023-03-14T04:20:33.310Z,93.30
2023-03-14T04:21:33.245Z,93.00
2023-03-14T04:22:33.256Z,93.66
2023-03-14T04:23:33.234Z,93.25
2023-03-14T04:24:33.230Z,92.90
2023-03-14T04:25:33.340Z,93.51
2023-03-14T04:26:33.244Z,93.55
2023-03-14T04:27:33.252Z,93.20
2023-03-14T04:28:33.191Z,93.45
2023-03-14T04:29:33.197Z,93.96
2023-03-14T04:30:33.318Z,93.76
2023-03-14T04:31:33.258Z,94.07
2023-03-14T04:32:33.228Z,94.07
2023-03-14T04:33:33.156Z,94.27
2023-03-14T04:34:33.162Z,93.55
2023-03-14T04:35:33.252Z,94.01
2023-03-14T04:36:33.150Z,93.55
2023-03-14T04:37:33.147Z,93.35
2023-03-14T04:38:33.158Z,93.35
2023-03-14T04:39:33.254Z,93.15
2023-03-14T04:40:33.137Z,92.83
2023-03-14T04:41:33.144Z,92.83
2023-03-14T04:42:33.124Z,93.04
2023-03-14T04:43:33.790Z,93.15
2023-03-14T04:44:34.822Z,93.76
2023-03-14T04:45:33.080Z,93.08
2023-03-14T04:46:33.122Z,93.04
2023-03-14T04:47:33.086Z,93.15
2023-03-14T04:48:33.046Z,93.19
2023-03-14T04:49:33.023Z,92.98
2023-03-14T04:50:33.026Z,93.15
2023-03-14T04:51:33.023Z,93.29
2023-03-14T04:52:33.001Z,93.29
2023-03-14T04:53:33.280Z,93.29
2023-03-14T04:54:34.054Z,93.54
2023-03-14T04:55:32.988Z,94.01
2023-03-14T04:56:32.983Z,93.95
2023-03-14T04:57:32.993Z,93.95
2023-03-14T04:58:33.011Z,93.80
2023-03-14T04:59:33.006Z,94.01
2023-03-14T05:00:32.933Z,93.95
2023-03-14T05:01:33.954Z,93.85
2023-03-14T05:02:32.937Z,93.85
2023-03-14T05:03:32.969Z,94.01
2023-03-14T05:04:32.948Z,94.21
2023-03-14T05:05:32.943Z,94.42
2023-03-14T05:06:32.897Z,94.11
2023-03-14T05:07:32.886Z,94.32
2023-03-14T05:08:32.908Z,94.42
2023-03-14T05:09:32.898Z,94.42
2023-03-14T05:10:32.870Z,93.90
2023-03-14T05:11:32.851Z,93.80
2023-03-14T05:12:33.863Z,93.80
2023-03-14T05:13:32.834Z,93.70
2023-03-14T05:14:32.868Z,93.45
2023-03-14T05:15:32.868Z,93.15
2023-03-14T05:16:33.232Z,92.94
2023-03-14T05:17:32.845Z,93.25
2023-03-14T05:18:32.818Z,92.59
2023-03-14T05:19:34.965Z,92.08
2023-03-14T05:20:32.823Z,92.28
2023-03-14T05:21:32.792Z,92.08
2023-03-14T05:22:32.783Z,91.87
2023-03-14T05:23:32.782Z,91.77
2023-03-14T05:24:32.784Z,92.08
2023-03-14T05:25:32.904Z,91.91
2023-03-14T05:26:32.775Z,91.87
2023-03-14T05:27:32.741Z,91.97
2023-03-14T05:28:32.731Z,91.97
2023-03-14T05:29:32.748Z,92.02
2023-03-14T05:30:32.763Z,92.22
2023-03-14T05:31:32.851Z,91.87
2023-03-14T05:32:33.002Z,91.87
2023-03-14T05:33:32.705Z,91.97
2023-03-14T05:34:33.591Z,91.97
2023-03-14T05:35:32.755Z,91.77
2023-03-14T05:36:32.732Z,92.08
2023-03-14T05:37:32.696Z,91.77
2023-03-14T05:38:32.701Z,91.87
2023-03-14T05:39:32.670Z,92.18
2023-03-14T05:40:32.682Z,91.87
2023-03-14T05:41:32.712Z,91.87
2023-03-14T05:42:32.681Z,91.36
2023-03-14T05:43:33.356Z,91.63
2023-03-14T05:44:32.624Z,90.95
2023-03-14T05:45:34.549Z,91.16
2023-03-14T05:46:32.614Z,90.60
2023-03-14T05:47:32.650Z,90.70
2023-03-14T05:48:32.626Z,89.98
2023-03-14T05:49:32.645Z,90.39
2023-03-14T05:50:32.581Z,90.39
2023-03-14T05:51:32.597Z,90.91
2023-03-14T05:52:32.586Z,90.60
2023-03-14T05:53:33.559Z,90.50
2023-03-14T05:54:32.635Z,90.91
2023-03-14T05:55:37.390Z,90.70
2023-03-14T05:56:32.606Z,91.11
2023-03-14T05:57:32.561Z,90.60
2023-03-14T05:58:33.622Z,91.11
2023-03-14T05:59:32.544Z,90.84
2023-03-14T06:00:32.560Z,90.50
2023-03-14T06:01:33.307Z,90.70
2023-03-14T06:02:33.048Z,91.73
2023-03-14T06:03:32.540Z,91.11
2023-03-14T06:04:32.495Z,91.31
2023-03-14T06:05:32.470Z,91.26
2023-03-14T06:06:32.479Z,91.11
2023-03-14T06:07:32.474Z,91.87
2023-03-14T06:08:32.485Z,91.67
2023-03-14T06:09:32.512Z,92.24
2023-03-14T06:10:32.437Z,92.59
2023-03-14T06:11:32.503Z,92.38
2023-03-14T06:12:32.445Z,92.90
2023-03-14T06:13:32.423Z,92.49
2023-03-14T06:14:32.446Z,92.90
2023-03-14T06:15:32.420Z,93.20
2023-03-14T06:16:32.429Z,93.20
2023-03-14T06:17:32.387Z,93.62
2023-03-14T06:18:32.355Z,93.71
2023-03-14T06:19:32.406Z,94.12
2023-03-14T06:20:32.343Z,94.23
2023-03-14T06:21:32.347Z,94.12
2023-03-14T06:22:32.400Z,94.43
2023-03-14T06:23:32.325Z,94.02
2023-03-14T06:24:32.349Z,94.02
2023-03-14T06:25:32.302Z,94.23
2023-03-14T06:26:32.325Z,94.02
2023-03-14T06:27:32.292Z,94.12
2023-03-14T06:28:32.281Z,93.51
2023-03-14T06:29:32.329Z,94.02
2023-03-14T06:30:32.369Z,93.51
2023-03-14T06:31:32.261Z,94.33
2023-03-14T06:32:32.290Z,94.02
2023-03-14T06:33:32.242Z,93.62
2023-03-14T06:34:32.262Z,94.02
2023-03-14T06:35:32.278Z,93.82
2023-03-14T06:36:32.221Z,93.71
2023-03-14T06:37:32.247Z,93.71
2023-03-14T06:38:32.260Z,92.90
2023-03-14T06:39:32.323Z,92.90
2023-03-14T06:40:32.217Z,92.90
2023-03-14T06:41:32.888Z,93.41
2023-03-14T06:42:32.235Z,93.00
2023-03-14T06:43:32.162Z,93.20
2023-03-14T06:44:32.169Z,93.00
2023-03-14T06:45:32.152Z,91.97
2023-03-14T06:46:32.201Z,92.18
2023-03-14T06:47:32.183Z,91.97
2023-03-14T06:48:32.140Z,91.93
2023-03-14T06:49:32.246Z,91.63
2023-03-14T06:50:32.140Z,91.73
2023-03-14T06:51:32.124Z,91.31
2023-03-14T06:52:32.176Z,91.46
2023-03-14T06:53:32.095Z,90.91
2023-03-14T06:54:32.125Z,91.22
2023-03-14T06:55:32.108Z,90.81
2023-03-14T06:56:32.126Z,90.91
2023-03-14T06:57:32.040Z,91.63
2023-03-14T06:58:32.159Z,91.42
2023-03-14T06:59:33.060Z,90.39
2023-03-14T07:00:32.050Z,90.39
2023-03-14T07:01:32.134Z,90.19
2023-03-14T07:02:42.674Z,90.45
2023-03-14T07:03:34.048Z,90.91
2023-03-14T07:04:32.039Z,90.60
2023-03-14T07:05:32.025Z,90.50
2023-03-14T07:06:32.000Z,90.91
2023-03-14T07:07:31.972Z,91.01
2023-03-14T07:08:32.024Z,90.60
2023-03-14T07:09:31.947Z,90.50
2023-03-14T07:10:32.063Z,90.86
2023-03-14T07:11:31.934Z,90.66
2023-03-14T07:12:33.005Z,90.91
2023-03-14T07:13:31.982Z,90.50
2023-03-14T07:14:32.034Z,90.36
2023-03-14T07:15:32.041Z,90.36
2023-03-14T07:16:31.989Z,89.64
2023-03-14T07:17:32.919Z,89.39
2023-03-14T07:18:32.418Z,89.59
2023-03-14T07:19:32.056Z,89.39
2023-03-14T07:20:31.945Z,88.78
2023-03-14T07:21:31.889Z,89.09
2023-03-14T07:22:31.871Z,88.57
2023-03-14T07:23:31.866Z,88.08
2023-03-14T07:24:31.828Z,87.67
2023-03-14T07:25:31.846Z,87.98
2023-03-14T07:26:31.858Z,87.67
2023-03-14T07:27:31.839Z,87.57
2023-03-14T07:28:31.838Z,87.47
2023-03-14T07:29:31.817Z,87.16
2023-03-14T07:30:31.869Z,87.88
2023-03-14T07:31:31.913Z,88.29
2023-03-14T07:32:31.843Z,88.94
2023-03-14T07:33:31.796Z,89.15
2023-03-14T07:34:31.770Z,89.15
2023-03-14T07:35:31.958Z,89.39
2023-03-14T07:36:31.751Z,89.59
2023-03-14T07:37:31.758Z,88.88
2023-03-14T07:38:31.771Z,89.90
2023-03-14T07:39:31.729Z,89.59
2023-03-14T07:40:31.869Z,89.18
2023-03-14T07:41:31.705Z,88.98
2023-03-14T07:42:31.752Z,88.68
2023-03-14T07:43:31.701Z,88.98
2023-03-14T07:44:31.716Z,88.68
2023-03-14T07:45:31.691Z,88.47
2023-03-14T07:46:31.784Z,88.43
2023-03-14T07:47:31.670Z,89.04
2023-03-14T07:48:31.647Z,88.64
2023-03-14T07:49:31.667Z,88.64
2023-03-14T07:50:31.658Z,88.84
2023-03-14T07:51:31.671Z,89.90
2023-03-14T07:52:31.632Z,89.80
2023-03-14T07:53:31.645Z,89.50
2023-03-14T07:54:31.642Z,90.00
2023-03-14T07:55:31.638Z,90.11
2023-03-14T07:56:31.626Z,89.90
2023-03-14T07:57:31.663Z,89.80
2023-03-14T07:58:31.581Z,89.50
2023-03-14T07:59:31.674Z,89.65
2023-03-14T08:00:31.573Z,90.31
2023-03-14T08:01:31.569Z,90.17
2023-03-14T08:02:31.570Z,89.59
2023-03-14T08:03:31.568Z,89.56
2023-03-14T08:04:31.559Z,89.80
2023-03-14T08:05:31.566Z,89.25
2023-03-14T08:06:31.551Z,89.90
2023-03-14T08:07:31.505Z,89.97
2023-03-14T08:08:31.515Z,89.76
2023-03-14T08:09:31.506Z,89.76
2023-03-14T08:10:31.495Z,89.86
2023-03-14T08:11:31.491Z,89.35
2023-03-14T08:12:31.535Z,89.04
2023-03-14T08:13:31.491Z,88.53
2023-03-14T08:14:31.508Z,88.39
2023-03-14T08:15:31.528Z,88.08
2023-03-14T08:16:31.503Z,87.98
2023-03-14T08:17:31.444Z,87.67
2023-03-14T08:18:31.426Z,88.59
2023-03-14T08:19:31.476Z,88.39
2023-03-14T08:20:31.459Z,88.08
2023-03-14T08:21:31.390Z,88.18
2023-03-14T08:22:31.412Z,88.59
2023-03-14T08:23:31.386Z,88.29
2023-03-14T08:24:31.415Z,88.64
2023-03-14T08:25:31.473Z,88.90
2023-03-14T08:26:31.381Z,88.53
2023-03-14T08:27:31.367Z,88.94
2023-03-14T08:28:31.375Z,88.64
2023-03-14T08:29:31.405Z,89.04
2023-03-14T08:30:31.373Z,88.53
2023-03-14T08:31:31.369Z,88.64
2023-03-14T08:32:31.382Z,88.64
2023-03-14T08:33:31.309Z,88.84
2023-03-14T08:34:31.305Z,88.64
2023-03-14T08:35:31.290Z,88.53
2023-03-14T08:36:31.383Z,88.88
2023-03-14T08:37:31.303Z,88.84
2023-03-14T08:38:31.303Z,88.64
2023-03-14T08:39:31.248Z,88.78
2023-03-14T08:40:31.268Z,89.04
2023-03-14T08:41:31.233Z,88.43
2023-03-14T08:42:31.254Z,88.53
2023-03-14T08:43:31.239Z,88.84
2023-03-14T08:44:31.276Z,88.90
2023-03-14T08:45:31.227Z,88.74
2023-03-14T08:46:31.220Z,88.94
2023-03-14T08:47:31.216Z,89.86
2023-03-14T08:48:31.213Z,89.82
2023-03-14T08:49:31.204Z,89.82
2023-03-14T08:50:31.165Z,89.15
2023-03-14T08:51:31.191Z,88.70
2023-03-14T08:52:31.166Z,88.70
2023-03-14T08:53:31.178Z,87.94
2023-03-14T08:54:31.189Z,88.24
2023-03-14T08:55:31.158Z,88.18
2023-03-14T08:56:31.122Z,87.88
2023-03-14T08:57:31.132Z,88.24
2023-03-14T08:58:31.141Z,88.14
2023-03-14T08:59:31.511Z,87.43
2023-03-14T09:00:31.115Z,87.84
2023-03-14T09:01:31.162Z,87.32
2023-03-14T09:02:31.165Z,87.63
2023-03-14T09:03:31.184Z,87.43
2023-03-14T09:04:31.202Z,87.73
2023-03-14T09:05:31.079Z,87.63
2023-03-14T09:06:31.067Z,87.23
2023-03-14T09:07:31.155Z,87.90
2023-03-14T09:08:31.055Z,87.53
2023-03-14T09:09:31.085Z,87.53
2023-03-14T09:10:31.019Z,87.73
2023-03-14T09:11:31.011Z,88.35
2023-03-14T09:12:31.011Z,88.45
2023-03-14T09:13:31.009Z,88.04
2023-03-14T09:14:31.037Z,88.04
2023-03-14T09:15:31.165Z,88.04
2023-03-14T09:16:30.986Z,88.14
2023-03-14T09:17:30.954Z,88.24
2023-03-14T09:18:30.976Z,88.04
2023-03-14T09:19:31.043Z,87.12
2023-03-14T09:20:31.009Z,88.14
2023-03-14T09:21:30.947Z,87.79
2023-03-14T09:22:30.915Z,88.10
2023-03-14T09:23:30.952Z,87.84
2023-03-14T09:24:30.919Z,88.41
2023-03-14T09:25:30.936Z,88.20
2023-03-14T09:26:30.910Z,87.59
2023-03-14T09:27:30.894Z,88.20
2023-03-14T09:28:30.897Z,88.10
2023-03-14T09:29:30.870Z,87.84
2023-03-14T09:30:30.864Z,88.24
2023-03-14T09:31:30.924Z,89.06
2023-03-14T09:32:30.937Z,88.82
2023-03-14T09:33:30.835Z,88.45
2023-03-14T09:34:30.854Z,88.45
2023-03-14T09:35:30.970Z,88.35
2023-03-14T09:36:30.844Z,89.06
2023-03-14T09:37:30.821Z,89.78
2023-03-14T09:38:30.802Z,89.61
2023-03-14T09:39:30.796Z,89.31
2023-03-14T09:40:30.781Z,89.72
2023-03-14T09:41:30.818Z,89.51
2023-03-14T09:42:30.806Z,89.82
2023-03-14T09:43:30.823Z,89.72
2023-03-14T09:44:30.872Z,90.12
2023-03-14T09:45:30.738Z,90.06
2023-03-14T09:46:30.752Z,90.12
2023-03-14T09:47:30.741Z,90.27
2023-03-14T09:48:30.704Z,90.12
2023-03-14T09:49:30.703Z,90.43
2023-03-14T09:50:30.683Z,90.74
2023-03-14T09:51:30.715Z,90.94
2023-03-14T09:52:30.795Z,90.53
2023-03-14T09:53:30.668Z,90.33
2023-03-14T09:54:30.684Z,90.74
2023-03-14T09:55:30.657Z,90.74
2023-03-14T09:56:30.669Z,90.33
2023-03-14T09:57:30.673Z,89.92
2023-03-14T09:58:30.599Z,90.12
2023-03-14T09:59:30.612Z,89.98
2023-03-14T10:00:30.648Z,89.51
2023-03-14T10:01:32.642Z,89.82
2023-03-14T10:02:31.626Z,89.78
2023-03-14T10:03:30.602Z,88.96
2023-03-14T10:04:30.629Z,89.06
2023-03-14T10:05:30.640Z,88.55
2023-03-14T10:06:30.563Z,88.35
2023-03-14T10:07:30.637Z,88.65
2023-03-14T10:08:30.635Z,88.35
2023-03-14T10:09:30.537Z,88.45
2023-03-14T10:10:30.571Z,88.65
2023-03-14T10:11:30.557Z,88.45
2023-03-14T10:12:30.547Z,88.76
2023-03-14T10:13:30.572Z,88.70
2023-03-14T10:14:30.518Z,88.55
2023-03-14T10:15:30.496Z,88.59
2023-03-14T10:16:30.566Z,88.35
2023-03-14T10:17:30.489Z,88.79
2023-03-14T10:18:30.501Z,88.55
2023-03-14T10:19:30.515Z,88.55
2023-03-14T10:20:30.456Z,88.04
2023-03-14T10:21:30.452Z,88.45
2023-03-14T10:22:30.478Z,88.35
2023-03-14T10:23:30.452Z,88.14
2023-03-14T10:24:30.428Z,88.24
2023-03-14T10:25:30.452Z,86.98
2023-03-14T10:26:30.398Z,87.59
2023-03-14T10:27:30.430Z,87.59
2023-03-14T10:28:30.404Z,87.29
2023-03-14T10:29:30.413Z,87.65
2023-03-14T10:30:30.965Z,87.76
2023-03-14T10:31:30.534Z,87.35
2023-03-14T10:32:30.421Z,87.85
2023-03-14T10:33:30.409Z,87.14
2023-03-14T10:34:30.460Z,87.24
2023-03-14T10:35:30.353Z,87.45
2023-03-14T10:36:30.339Z,87.55
2023-03-14T10:37:30.333Z,87.76
2023-03-14T10:38:30.376Z,87.49
2023-03-14T10:39:30.315Z,87.35
2023-03-14T10:40:30.494Z,87.14
2023-03-14T10:41:30.301Z,87.24
2023-03-14T10:42:30.328Z,87.65
2023-03-14T10:43:30.321Z,87.14
2023-03-14T10:44:30.290Z,87.30
2023-03-14T10:45:30.282Z,86.59
2023-03-14T10:46:30.343Z,86.24
2023-03-14T10:47:30.245Z,85.43
2023-03-14T10:48:30.256Z,85.74
2023-03-14T10:49:30.221Z,85.94
2023-03-14T10:50:30.238Z,85.63
2023-03-14T10:51:30.274Z,86.30
2023-03-14T10:52:45.623Z,85.05
2023-03-14T10:53:32.242Z,85.45
2023-03-14T10:54:30.251Z,85.05
2023-03-14T10:55:30.379Z,85.14
2023-03-14T10:56:30.211Z,84.94
2023-03-14T10:57:30.211Z,85.60
2023-03-14T10:58:31.853Z,85.90
2023-03-14T10:59:31.143Z,87.06
2023-03-14T11:00:30.149Z,87.57
2023-03-14T11:01:30.176Z,87.30
2023-03-14T11:02:30.165Z,87.00
2023-03-14T11:03:30.143Z,88.02
2023-03-14T11:04:30.153Z,89.69
2023-03-14T11:05:30.123Z,90.41
2023-03-14T11:06:30.196Z,90.90
2023-03-14T11:07:30.103Z,91.61
2023-03-14T11:08:30.109Z,92.64
2023-03-14T11:09:30.101Z,92.68
2023-03-14T11:10:30.058Z,92.54
2023-03-14T11:11:30.298Z,93.05
2023-03-14T11:12:30.149Z,92.68
2023-03-14T11:13:30.086Z,93.05
2023-03-14T11:14:30.108Z,93.45
2023-03-14T11:15:30.056Z,92.54
2023-03-14T11:16:30.166Z,92.59
2023-03-14T11:17:30.965Z,92.59
2023-03-14T11:18:30.064Z,92.45
2023-03-14T11:19:30.011Z,91.94
2023-03-14T11:20:29.973Z,91.53
2023-03-14T11:21:30.029Z,90.61
2023-03-14T11:22:29.979Z,90.00
2023-03-14T11:23:30.080Z,89.59
2023-03-14T11:24:29.977Z,90.06
2023-03-14T11:25:29.983Z,89.96
2023-03-14T11:26:29.951Z,89.55
2023-03-14T11:27:29.935Z,88.32
2023-03-14T11:28:30.003Z,89.55
2023-03-14T11:29:30.967Z,88.32
2023-03-14T11:30:31.420Z,88.22
2023-03-14T11:31:30.987Z,88.73
2023-03-14T11:32:30.522Z,88.26
2023-03-14T11:33:30.032Z,88.43
2023-03-14T11:34:29.929Z,88.02
2023-03-14T11:35:31.452Z,88.12
2023-03-14T11:36:31.648Z,88.02
2023-03-14T11:37:30.062Z,87.00
2023-03-14T11:38:29.972Z,87.24
2023-03-14T11:39:29.902Z,87.30
2023-03-14T11:40:29.817Z,88.06
2023-03-14T11:41:29.817Z,88.12
2023-03-14T11:42:30.420Z,88.12
2023-03-14T11:43:30.554Z,87.92
2023-03-14T11:44:30.310Z,88.02
2023-03-14T11:45:29.822Z,88.02
2023-03-14T11:46:30.045Z,88.17
2023-03-14T11:47:29.791Z,88.47
2023-03-14T11:48:29.799Z,87.65
2023-03-14T11:49:29.816Z,87.85
2023-03-14T11:50:29.773Z,88.26
2023-03-14T11:51:30.576Z,88.37
2023-03-14T11:52:29.759Z,88.12
2023-03-14T11:53:29.751Z,87.96
2023-03-14T11:54:29.742Z,88.17
2023-03-14T11:55:29.747Z,88.47
2023-03-14T11:56:29.719Z,88.67
2023-03-14T11:57:29.705Z,90.31
2023-03-14T11:58:29.710Z,90.92
2023-03-14T11:59:29.694Z,91.88
2023-03-14T12:00:29.762Z,92.08
2023-03-14T12:01:29.831Z,92.02
2023-03-14T12:02:29.762Z,92.84
2023-03-14T12:03:29.705Z,93.25
2023-03-14T12:04:29.692Z,93.05
2023-03-14T12:05:29.837Z,93.96
2023-03-14T12:06:29.614Z,93.60
2023-03-14T12:07:29.667Z,94.98
2023-03-14T12:08:29.636Z,95.34
2023-03-14T12:09:29.615Z,95.23
2023-03-14T12:10:32.304Z,95.85
2023-03-14T12:11:29.598Z,96.26
2023-03-14T12:12:29.614Z,95.95
2023-03-14T12:13:29.599Z,94.97
2023-03-14T12:14:29.631Z,95.48
2023-03-14T12:15:29.593Z,96.36
2023-03-14T12:16:29.618Z,96.36
2023-03-14T12:17:29.543Z,96.51
2023-03-14T12:18:29.568Z,96.56
2023-03-14T12:19:29.577Z,96.56
2023-03-14T12:20:31.159Z,96.97
2023-03-14T12:21:30.042Z,96.26
2023-03-14T12:22:29.548Z,96.36
2023-03-14T12:23:29.535Z,95.13
2023-03-14T12:24:31.096Z,95.03
2023-03-14T12:25:29.507Z,95.23
2023-03-14T12:26:29.546Z,95.34
2023-03-14T12:27:29.515Z,95.23
2023-03-14T12:28:29.871Z,95.13
2023-03-14T12:29:29.479Z,94.87
2023-03-14T12:30:29.479Z,94.42
2023-03-14T12:31:29.560Z,94.32
2023-03-14T12:32:29.634Z,94.42
2023-03-14T12:33:29.450Z,95.23
2023-03-14T12:34:29.409Z,95.34
2023-03-14T12:35:29.431Z,95.95
2023-03-14T12:36:29.424Z,95.07
2023-03-14T12:37:29.814Z,96.05
2023-03-14T12:38:29.483Z,95.38
2023-03-14T12:39:29.390Z,94.97
2023-03-14T12:40:29.390Z,95.69
2023-03-14T12:41:29.388Z,96.10
2023-03-14T12:42:35.499Z,96.71
2023-03-14T12:43:31.354Z,97.22
2023-03-14T12:44:29.318Z,97.78
2023-03-14T12:45:30.037Z,97.88
2023-03-14T12:46:29.380Z,98.29
2023-03-14T12:47:29.480Z,98.39
2023-03-14T12:48:29.334Z,98.80
2023-03-14T12:49:29.352Z,99.01
2023-03-14T12:50:29.332Z,99.52
2023-03-14T12:51:29.444Z,99.98
2023-03-14T12:52:29.262Z,99.99
2023-03-14T12:53:29.359Z,99.99
2023-03-14T12:54:29.256Z,99.99
2023-03-14T12:55:29.276Z,99.99
2023-03-14T12:56:29.306Z,99.99
2023-03-14T12:57:29.263Z,99.99
2023-03-14T12:58:29.293Z,99.99
2023-03-14T12:59:29.254Z,99.99
2023-03-14T13:00:29.249Z,99.99
2023-03-14T13:01:29.473Z,99.99
2023-03-14T13:02:29.219Z,99.99
2023-03-14T13:03:29.262Z,99.91
2023-03-14T13:04:39.035Z,99.71
2023-03-14T13:05:31.240Z,99.61
2023-03-14T13:06:29.188Z,99.61
2023-03-14T13:07:29.182Z,98.79